Latest Weather Observations for Edithburgh

IDS60801

Issued at 7:01 am CST Tuesday 1 September 2015 (issued every 30 minutes, with the page automatically refreshed every 10 minutes)

About weather observations | Map of weather stations | Latest weather observations for SA | Other Formats
Station Details ID: 022046 Name: EDITHBURGH Lat: -35.11 Lon: 137.74 Height: 6.0 m
Data from the previous 72 hours. | See also: Recent months at Edithburgh
Date/Time
CST
Temp
°C
App
Temp
°C
Dew
Point
Rel
Hum
%
Delta-T
°C
Wind Press
QNH
hPa
Press
MSL
hPa
Rain
since 9 am
mm
Dir
 
Spd
km/h
Gust
km/h
Spd
kts
Gust
kts
01/07:00am 12.6 11.1 10.5 87 1.1 NE 9 13 5 7 1012.3 1012.3 0.4
01/06:30am 12.5 11.3 10.2 86 1.2 NNE 7 9 4 5 1012.1 1012.1 0.4
01/06:00am 12.4 10.6 9.4 82 1.5 NNE 9 15 5 8 1011.9 1011.9 0.4
01/05:30am 12.1 9.8 9.1 82 1.5 NNE 11 17 6 9 1012.1 1012.1 0.4
01/05:00am 12.4 10.1 10.3 87 1.1 NNE 13 20 7 11 1011.9 1011.9 0.4
01/04:30am 12.7 10.3 10.2 85 1.3 N 13 19 7 10 1011.8 1011.8 0.0
01/04:00am 12.4 10.5 10.5 88 1.0 NNE 11 17 6 9 1011.8 1011.8 0.0
01/03:30am 12.6 10.1 9.7 82 1.5 NNE 13 19 7 10 1012.2 1012.2 0.0
01/03:00am 12.5 10.0 9.8 83 1.4 NNE 13 19 7 10 1012.5 1012.5 0.0
01/02:30am 12.3 9.4 9.7 84 1.3 NNE 15 24 8 13 1013.0 1013.0 0.0
01/02:00am 12.4 9.8 9.4 82 1.5 NNE 13 20 7 11 1013.5 1013.5 0.0
01/01:30am 12.3 10.2 9.7 84 1.3 NE 11 17 6 9 1013.8 1013.8 0.0
01/01:00am 12.2 9.3 9.8 85 1.2 NE 15 19 8 10 1014.1 1014.1 0.0
01/12:30am 12.4 9.6 9.9 85 1.3 NE 15 20 8 11 1014.2 1014.2 0.0
01/12:00am 13.0 10.5 9.7 80 1.7 NE 13 17 7 9 1014.6 1014.6 0.0
 
Date/Time
CST
Temp
°C
App
Temp
°C
Dew
Point
Rel
Hum
%
Delta-T
°C
Wind Press
QNH
hPa
Press
MSL
hPa
Rain
since 9 am
mm
Dir
 
Spd
km/h
Gust
km/h
Spd
kts
Gust
kts
31/11:30pm 11.9 9.7 9.5 85 1.2 ENE 11 13 6 7 1014.8 1014.8 0.0
31/11:00pm 12.2 10.0 9.4 83 1.4 NE 11 15 6 8 1015.3 1015.3 0.0
31/10:30pm 13.0 11.3 9.7 80 1.7 NNE 9 13 5 7 1015.6 1015.6 0.0
31/10:00pm 13.8 10.6 8.6 71 2.6 ENE 15 19 8 10 1015.7 1015.7 0.0
31/09:30pm 13.8 10.9 8.2 69 2.8 ENE 13 17 7 9 1016.0 1016.0 0.0
31/09:00pm 14.0 10.7 7.9 66 3.0 ENE 15 20 8 11 1016.0 1016.0 0.0
31/08:30pm 13.7 10.0 7.8 67 2.9 ENE 17 20 9 11 1016.0 1016.0 0.0
31/08:00pm 13.4 10.1 7.9 69 2.7 ENE 15 20 8 11 1016.0 1016.0 0.0
31/07:30pm 13.2 9.9 8.1 71 2.5 E 15 19 8 10 1016.1 1016.1 0.0
31/07:00pm 12.3 9.6 8.9 80 1.7 E 13 17 7 9 1016.1 1016.1 0.0
31/06:30pm 11.6 9.6 8.8 83 1.4 E 9 13 5 7 1016.1 1016.1 0.0
31/06:00pm 11.8 10.3 9.2 84 1.3 E 7 9 4 5 1016.1 1016.1 0.0
31/05:30pm 13.1 11.7 9.6 79 1.8 ENE 7 9 4 5 1016.2 1016.2 0.0
31/05:00pm 13.9 11.7 9.4 74 2.3 NE 11 15 6 8 1016.2 1016.2 0.0
31/04:30pm 14.3 11.5 10.1 76 2.2 NE 15 19 8 10 1016.2 1016.2 0.0
31/04:00pm 14.4 12.0 10.0 75 2.3 ENE 13 20 7 11 1016.7 1016.7 0.0
31/03:30pm 14.4 11.1 9.5 72 2.5 ENE 17 20 9 11 1016.8 1016.8 0.0
31/03:00pm 14.3 11.3 9.4 72 2.5 ENE 15 19 8 10 1017.1 1017.1 0.0
31/02:30pm 14.0 10.7 9.7 75 2.2 ENE 17 19 9 10 1017.4 1017.5 0.0
31/02:00pm 14.2 11.3 9.5 73 2.4 ENE 15 19 8 10 1017.8 1017.9 0.0
31/01:30pm 14.6 11.7 9.5 71 2.6 NE 15 19 8 10 1018.2 1018.3 0.0
31/01:00pm 14.2 10.9 9.5 73 2.4 NE 17 20 9 11 1018.5 1018.6 0.0
31/12:30pm 14.3 11.3 9.4 72 2.5 NE 15 20 8 11 1019.0 1019.1 0.0
31/12:00pm 13.8 10.8 9.3 74 2.3 NE 15 17 8 9 1019.5 1019.6 0.0
31/11:30am 13.7 10.6 8.9 73 2.4 NE 15 20 8 11 1020.0 1020.0 0.0
31/11:00am 14.0 11.4 9.3 73 2.4 NE 13 17 7 9 1020.2 1020.2 0.0
31/10:30am 13.4 11.2 9.5 77 2.0 NNE 11 17 6 9 1020.5 1020.5 0.0
31/10:00am 13.3 11.0 8.9 74 2.2 NE 11 17 6 9 1020.6 1020.6 0.0
31/09:30am 13.3 11.0 9.1 76 2.1 NNE 11 17 6 9 1020.8 1020.8 0.0
31/09:00am 13.1 11.4 9.8 80 1.7 NNE 9 13 5 7 1020.9 1020.9 0.0
31/08:30am 12.7 10.7 8.7 76 2.0 NNE 9 15 5 8 1020.8 1020.8 0.0
31/08:00am 12.3 9.8 8.2 76 2.0 NE 11 17 6 9 1020.6 1020.6 0.0
31/07:30am 9.7 7.5 7.8 88 0.9 NE 9 11 5 6 1020.4 1020.4 0.0
31/07:00am 6.7 4.5 6.3 97 0.2 NNE 7 9 4 5 1020.4 1020.4 0.0
31/06:30am 5.6 4.1 5.1 97 0.2 NNE 2 4 1 2 1020.3 1020.3 0.0
31/06:00am 5.2 2.5 3.8 91 0.6 N 7 7 4 4 1020.4 1020.4 0.0
31/05:57am 5.5 2.8 3.8 89 0.7 N 7 9 4 5 1020.4 1020.4 0.0
31/05:30am 10.6 7.8 6.8 77 1.8 NNE 11 13 6 7 1020.4 1020.4 0.0
31/05:00am 10.4 7.0 6.1 75 2.0 NE 13 17 7 9 1020.5 1020.5 0.0
31/04:30am 10.6 6.9 6.1 74 2.1 NE 15 19 8 10 1020.5 1020.5 0.0
31/04:00am 10.3 7.0 6.2 76 1.9 NE 13 17 7 9 1020.6 1020.6 0.0
31/03:30am 10.8 7.4 5.8 71 2.3 NE 13 19 7 10 1020.7 1020.7 0.0
31/03:00am 10.7 7.4 6.2 74 2.1 NE 13 17 7 9 1020.8 1020.8 0.0
31/02:30am 9.2 6.9 7.3 88 0.9 ENE 9 11 5 6 1021.2 1021.2 0.0
31/02:00am 9.6 6.8 6.8 83 1.3 NE 11 13 6 7 1021.6 1021.6 0.0
31/01:30am 10.3 7.6 7.4 82 1.4 ENE 11 15 6 8 1021.8 1021.8 0.0
31/01:00am 10.3 7.7 7.6 83 1.3 E 11 15 6 8 1022.1 1022.1 0.0
31/12:30am 9.6 6.9 7.3 85 1.1 E 11 13 6 7 1022.0 1022.0 0.0
31/12:00am 10.1 6.9 6.9 80 1.5 E 13 17 7 9 1022.3 1022.3 0.0
 
Date/Time
CST
Temp
°C
App
Temp
°C
Dew
Point
Rel
Hum
%
Delta-T
°C
Wind Press
QNH
hPa
Press
MSL
hPa
Rain
since 9 am
mm
Dir
 
Spd
km/h
Gust
km/h
Spd
kts
Gust
kts
30/11:30pm 10.3 7.2 7.1 80 1.5 E 13 17 7 9 1022.4 1022.4 0.0
30/11:00pm 10.6 7.6 7.7 82 1.4 E 13 19 7 10 1022.4 1022.4 0.0
30/10:30pm 10.6 7.6 7.9 83 1.3 E 13 19 7 10 1022.5 1022.5 0.0
30/10:00pm 10.9 7.5 7.6 80 1.6 E 15 20 8 11 1022.7 1022.7 0.0
30/09:30pm 10.3 7.2 7.3 82 1.4 E 13 17 7 9 1022.9 1022.9 0.0
30/09:00pm 9.7 7.3 7.1 84 1.2 E 9 13 5 7 1023.1 1023.1 0.0
30/08:30pm 9.7 7.2 6.7 81 1.4 E 9 13 5 7 1023.0 1023.0 0.0
30/08:00pm 9.7 6.8 6.5 80 1.5 ESE 11 13 6 7 1022.9 1022.9 0.0
30/07:30pm 9.2 6.2 5.9 80 1.5 E 11 13 6 7 1022.7 1022.7 0.0
30/07:00pm 9.0 6.0 5.9 81 1.4 ESE 11 11 6 6 1022.8 1022.8 0.0
30/06:30pm 9.4 6.7 5.6 77 1.7 E 9 11 5 6 1023.0 1023.0 0.0
30/06:00pm 10.3 8.0 5.7 73 2.1 ESE 7 9 4 5 1023.0 1023.0 0.0
30/05:30pm 11.7 9.1 5.9 67 2.7 E 9 11 5 6 1022.9 1022.9 0.0
30/05:00pm 12.6 9.1 5.5 62 3.3 E 13 15 7 8 1022.6 1022.6 0.0
30/04:30pm 13.0 9.8 5.0 58 3.7 E 11 15 6 8 1022.7 1022.7 0.0
30/04:00pm 13.2 9.7 5.5 59 3.6 E 13 17 7 9 1022.8 1022.8 0.0
30/03:30pm 13.4 10.1 6.5 63 3.3 E 13 19 7 10 1022.9 1022.9 0.0
30/03:00pm 13.1 9.3 5.9 61 3.4 ENE 15 20 8 11 1023.0 1023.0 0.0
30/02:30pm 13.0 9.3 6.5 64 3.1 ENE 15 20 8 11 1023.3 1023.3 0.0
30/02:00pm 12.8 8.7 6.2 64 3.1 ENE 17 20 9 11 1023.5 1023.5 0.0
30/01:30pm 12.7 8.5 5.9 63 3.2 ENE 17 20 9 11 1023.9 1023.9 0.0
30/01:00pm 12.6 8.3 5.2 60 3.4 ENE 17 22 9 12 1024.3 1024.3 0.0
30/12:30pm 12.3 7.9 4.8 60 3.4 NE 17 20 9 11 1024.9 1024.9 0.0
30/12:00pm 12.4 8.4 5.0 60 3.4 NE 15 20 8 11 1025.5 1025.5 0.0
30/11:30am 12.4 8.0 5.0 60 3.4 NE 17 24 9 13 1025.8 1025.8 0.0
30/11:00am 11.8 7.0 4.7 62 3.2 NE 19 24 10 13 1025.9 1025.9 0.0
30/10:30am 12.1 8.3 5.6 64 3.0 NE 15 22 8 12 1026.3 1026.3 0.0
30/10:00am 11.8 7.8 5.0 63 3.1 NE 15 22 8 12 1026.5 1026.5 0.0
30/09:30am 11.3 6.9 4.9 65 2.9 NE 17 24 9 13 1026.5 1026.5 0.0
30/09:00am 11.1 6.7 4.9 65 2.8 NE 17 22 9 12 1026.4 1026.4 0.0
30/08:30am 11.0 7.5 5.3 68 2.6 NE 13 17 7 9 1026.5 1026.5 0.0
30/08:00am 7.9 5.8 5.9 87 0.9 NNW 6 7 3 4 1026.5 1026.5 0.0
30/07:30am 4.0 1.1 2.8 92 0.5 N 7 9 4 5 1026.4 1026.4 0.0
30/07:00am 3.3 -0.2 1.5 88 0.7 N 9 9 5 5 1026.4 1026.4 0.0
30/06:46am 4.5 1.1 2.0 84 1.0 NNW 9 11 5 6 1026.3 1026.3 0.0
30/06:30am 9.5 6.2 4.5 71 2.2 NE 11 15 6 8 1026.2 1026.2 0.0
30/06:00am 9.0 5.6 3.9 70 2.2 NE 11 15 6 8 1025.9 1025.9 0.0
30/05:30am 8.5 5.0 3.6 71 2.1 NE 11 15 6 8 1025.7 1025.7 0.0
30/05:00am 8.9 5.5 3.8 70 2.2 NE 11 13 6 7 1025.5 1025.5 0.0
30/04:30am 8.9 5.8 3.8 70 2.2 NE 9 13 5 7 1025.4 1025.4 0.0
30/04:00am 8.6 5.6 4.2 74 1.9 NE 9 11 5 6 1025.4 1025.4 0.0
30/03:30am 8.7 5.7 4.3 74 1.9 NE 9 13 5 7 1025.7 1025.7 0.0
30/03:00am 9.8 5.7 4.1 67 2.5 ENE 15 20 8 11 1026.1 1026.1 0.0
30/02:30am 9.7 6.8 4.7 71 2.2 E 9 13 5 7 1026.5 1026.5 0.0
30/02:00am 9.9 5.7 3.9 66 2.6 E 15 20 8 11 1026.7 1026.7 0.0
30/01:30am 9.9 5.5 4.7 70 2.3 E 17 20 9 11 1027.0 1027.0 0.0
30/01:00am 9.6 5.5 4.4 70 2.3 E 15 20 8 11 1027.3 1027.3 0.0
30/12:30am 9.5 5.4 4.3 70 2.3 E 15 20 8 11 1027.4 1027.4 0.0
30/12:00am 10.2 5.2 3.5 63 2.9 E 19 24 10 13 1027.4 1027.4 0.0
 
Date/Time
CST
Temp
°C
App
Temp
°C
Dew
Point
Rel
Hum
%
Delta-T
°C
Wind Press
QNH
hPa
Press
MSL
hPa
Rain
since 9 am
mm
Dir
 
Spd
km/h
Gust
km/h
Spd
kts
Gust
kts
29/11:30pm 10.0 5.6 4.6 69 2.4 ESE 17 24 9 13 1027.5 1027.5 0.0
29/11:00pm 10.0 5.6 4.8 70 2.3 ESE 17 20 9 11 1027.6 1027.6 0.0
29/10:30pm 10.1 5.6 4.2 67 2.6 ESE 17 24 9 13 1027.7 1027.7 0.0
29/10:00pm 10.1 5.6 4.2 67 2.6 ESE 17 22 9 12 1028.0 1028.0 0.0
29/09:30pm 9.9 5.7 3.9 66 2.6 ESE 15 20 8 11 1028.1 1028.1 0.0
29/09:00pm 9.6 5.4 3.8 67 2.5 ESE 15 19 8 10 1028.2 1028.2 0.0
29/08:30pm 9.6 5.5 4.4 70 2.3 ESE 15 20 8 11 1027.9 1027.9 0.0
29/08:00pm 9.8 5.3 4.1 67 2.5 ESE 17 22 9 12 1027.8 1027.8 0.0
29/07:30pm 9.9 4.8 4.2 67 2.5 SE 20 26 11 14 1027.5 1027.5 0.0
29/07:00pm 9.9 5.0 4.2 67 2.5 SE 19 22 10 12 1027.5 1027.5 0.0
29/06:30pm 9.7 5.0 3.2 64 2.8 SE 17 20 9 11 1027.4 1027.4 0.0
29/06:00pm 9.8 5.8 3.0 62 2.9 SSE 13 19 7 10 1027.3 1027.3 0.0
29/05:30pm 10.4 5.9 2.4 57 3.4 SSE 15 17 8 9 1027.0 1027.0 0.0
29/05:00pm 11.0 6.3 3.2 58 3.4 S 17 22 9 12 1027.1 1027.1 0.0
29/04:30pm 11.7 8.1 2.7 54 3.9 SSE 11 15 6 8 1026.9 1026.9 0.0
29/04:00pm 11.9 7.6 3.2 55 3.8 SSE 15 20 8 11 1027.0 1027.0 0.0
29/03:30pm 12.1 7.2 2.0 50 4.3 SE 17 22 9 12 1027.0 1027.0 0.0
29/03:00pm 12.2 6.9 2.8 52 4.1 SE 20 28 11 15 1027.1 1027.1 0.0
29/02:30pm 12.4 7.9 4.2 57 3.7 SE 17 22 9 12 1027.3 1027.3 0.0
29/02:00pm 12.0 7.2 4.4 59 3.4 SE 19 24 10 13 1027.7 1027.7 0.0
29/01:30pm 12.1 7.4 5.1 62 3.2 SE 19 22 10 12 1027.9 1027.9 0.0
29/01:00pm 12.0 7.6 5.0 62 3.2 ESE 17 22 9 12 1028.1 1028.1 0.0
29/12:30pm 11.9 7.3 5.6 65 2.9 ESE 19 24 10 13 1028.5 1028.5 0.0
29/12:00pm 12.8 8.4 6.7 66 2.9 ESE 19 26 10 14 1028.9 1028.9 0.0
29/11:30am 12.3 8.0 6.8 69 2.6 SE 19 24 10 13 1029.3 1029.3 0.0
29/11:00am 11.6 7.0 6.7 72 2.3 SE 20 26 11 14 1029.5 1029.5 0.0
29/10:30am 11.5 7.3 7.5 76 1.9 ESE 19 26 10 14 1029.3 1029.3 0.0
29/10:00am 11.2 6.9 7.9 80 1.6 ESE 20 26 11 14 1029.2 1029.2 0.0
29/09:30am 12.4 8.9 7.4 71 2.4 ESE 15 19 8 10 1029.0 1029.0 0.0
29/09:00am 11.9 8.0 7.3 73 2.2 ESE 17 22 9 12 1029.0 1029.0 0.0
29/08:30am 11.6 8.1 7.0 73 2.2 ESE 15 20 8 11 1028.8 1028.8 0.0
29/08:00am 11.2 7.6 6.7 74 2.1 ESE 15 20 8 11 1028.6 1028.6 0.0
29/07:30am 10.9 7.3 6.9 76 1.9 ESE 15 20 8 11 1028.2 1028.2 0.0

Other Formats:

Comma delimited format used in spreadsheet applications
http://www.bom.gov.au/fwo/IDS60801/IDS60801.94809.axf

JavaScript Object Notation format (JSON) in row-major order
http://www.bom.gov.au/fwo/IDS60801/IDS60801.94809.json